sensor_id;sensor_type;location;lat;lon;timestamp;P1;durP1;ratioP1;P2;durP2;ratioP2
10479;SDS011;12789;42.610;23.040;2023-01-16T00:01:44;56.07;;;27.93;;
10479;SDS011;12789;42.610;23.040;2023-01-16T00:04:11;54.83;;;29.87;;
10479;SDS011;12789;42.610;23.040;2023-01-16T00:06:38;71.17;;;34.50;;
10479;SDS011;12789;42.610;23.040;2023-01-16T00:09:06;63.80;;;31.97;;
10479;SDS011;12789;42.610;23.040;2023-01-16T00:11:33;70.43;;;33.73;;
10479;SDS011;12789;42.610;23.040;2023-01-16T00:14:00;69.73;;;33.47;;
10479;SDS011;12789;42.610;23.040;2023-01-16T00:16:28;61.00;;;32.23;;
10479;SDS011;12789;42.610;23.040;2023-01-16T00:18:55;58.30;;;31.07;;
10479;SDS011;12789;42.610;23.040;2023-01-16T00:21:22;47.60;;;26.97;;
10479;SDS011;12789;42.610;23.040;2023-01-16T00:23:51;48.93;;;27.20;;
10479;SDS011;12789;42.610;23.040;2023-01-16T00:26:18;44.27;;;24.00;;
10479;SDS011;12789;42.610;23.040;2023-01-16T00:28:44;44.00;;;24.03;;
10479;SDS011;12789;42.610;23.040;2023-01-16T00:31:11;45.73;;;25.33;;
10479;SDS011;12789;42.610;23.040;2023-01-16T00:33:40;42.13;;;24.60;;
10479;SDS011;12789;42.610;23.040;2023-01-16T00:36:07;44.70;;;25.60;;
10479;SDS011;12789;42.610;23.040;2023-01-16T00:38:34;47.27;;;25.93;;
10479;SDS011;12789;42.610;23.040;2023-01-16T00:41:01;43.80;;;24.23;;
10479;SDS011;12789;42.610;23.040;2023-01-16T00:43:28;47.80;;;25.57;;
10479;SDS011;12789;42.610;23.040;2023-01-16T00:45:54;80.93;;;39.07;;
10479;SDS011;12789;42.610;23.040;2023-01-16T00:48:22;49.47;;;27.30;;
10479;SDS011;12789;42.610;23.040;2023-01-16T00:50:50;41.63;;;22.97;;
10479;SDS011;12789;42.610;23.040;2023-01-16T00:53:17;44.53;;;24.63;;
10479;SDS011;12789;42.610;23.040;2023-01-16T00:55:44;40.97;;;22.90;;
10479;SDS011;12789;42.610;23.040;2023-01-16T00:58:11;40.63;;;23.73;;
10479;SDS011;12789;42.610;23.040;2023-01-16T01:00:37;48.67;;;27.00;;
10479;SDS011;12789;42.610;23.040;2023-01-16T01:03:04;49.23;;;26.50;;
10479;SDS011;12789;42.610;23.040;2023-01-16T01:05:34;56.23;;;28.27;;
10479;SDS011;12789;42.610;23.040;2023-01-16T01:08:02;42.03;;;22.77;;
10479;SDS011;12789;42.610;23.040;2023-01-16T01:10:29;39.57;;;23.30;;
10479;SDS011;12789;42.610;23.040;2023-01-16T01:12:55;38.10;;;22.77;;
10479;SDS011;12789;42.610;23.040;2023-01-16T01:15:22;43.43;;;24.73;;
10479;SDS011;12789;42.610;23.040;2023-01-16T01:17:49;41.70;;;22.07;;
10479;SDS011;12789;42.610;23.040;2023-01-16T01:20:16;35.03;;;22.10;;
10479;SDS011;12789;42.610;23.040;2023-01-16T01:22:43;35.40;;;20.40;;
10479;SDS011;12789;42.610;23.040;2023-01-16T01:25:12;39.37;;;21.30;;
10479;SDS011;12789;42.610;23.040;2023-01-16T01:27:39;43.50;;;23.87;;
10479;SDS011;12789;42.610;23.040;2023-01-16T01:30:06;61.73;;;29.47;;
10479;SDS011;12789;42.610;23.040;2023-01-16T01:32:34;45.33;;;23.60;;
10479;SDS011;12789;42.610;23.040;2023-01-16T01:35:02;41.27;;;21.27;;
10479;SDS011;12789;42.610;23.040;2023-01-16T01:37:29;37.30;;;21.60;;
10479;SDS011;12789;42.610;23.040;2023-01-16T01:39:56;32.50;;;19.13;;
10479;SDS011;12789;42.610;23.040;2023-01-16T01:42:25;39.37;;;22.37;;
10479;SDS011;12789;42.610;23.040;2023-01-16T01:45:13;37.47;;;20.17;;
10479;SDS011;12789;42.610;23.040;2023-01-16T01:47:43;33.40;;;19.60;;
10479;SDS011;12789;42.610;23.040;2023-01-16T01:50:13;30.73;;;19.37;;
10479;SDS011;12789;42.610;23.040;2023-01-16T01:52:42;41.23;;;21.30;;
10479;SDS011;12789;42.610;23.040;2023-01-16T01:55:09;37.73;;;19.87;;
10479;SDS011;12789;42.610;23.040;2023-01-16T01:57:42;33.97;;;19.40;;
10479;SDS011;12789;42.610;23.040;2023-01-16T02:00:11;33.80;;;20.13;;
10479;SDS011;12789;42.610;23.040;2023-01-16T02:02:43;38.37;;;21.27;;
10479;SDS011;12789;42.610;23.040;2023-01-16T02:05:12;36.10;;;20.33;;
10479;SDS011;12789;42.610;23.040;2023-01-16T02:07:43;32.93;;;18.93;;
10479;SDS011;12789;42.610;23.040;2023-01-16T02:10:11;31.90;;;18.90;;
10479;SDS011;12789;42.610;23.040;2023-01-16T02:12:54;34.83;;;20.00;;
10479;SDS011;12789;42.610;23.040;2023-01-16T02:15:21;30.87;;;18.70;;
10479;SDS011;12789;42.610;23.040;2023-01-16T02:17:50;34.37;;;18.90;;
10479;SDS011;12789;42.610;23.040;2023-01-16T02:20:36;31.60;;;17.53;;
10479;SDS011;12789;42.610;23.040;2023-01-16T02:25:57;29.80;;;17.63;;
10479;SDS011;12789;42.610;23.040;2023-01-16T02:28:36;29.17;;;15.73;;
10479;SDS011;12789;42.610;23.040;2023-01-16T02:34:03;28.37;;;16.10;;
10479;SDS011;12789;42.610;23.040;2023-01-16T02:36:49;27.37;;;15.20;;
10479;SDS011;12789;42.610;23.040;2023-01-16T02:39:25;24.43;;;15.53;;
10479;SDS011;12789;42.610;23.040;2023-01-16T02:42:11;27.47;;;16.13;;
10479;SDS011;12789;42.610;23.040;2023-01-16T02:44:41;28.30;;;16.47;;
10479;SDS011;12789;42.610;23.040;2023-01-16T02:47:14;26.33;;;15.37;;
10479;SDS011;12789;42.610;23.040;2023-01-16T02:49:46;29.50;;;14.80;;
10479;SDS011;12789;42.610;23.040;2023-01-16T02:52:15;28.43;;;16.90;;
10479;SDS011;12789;42.610;23.040;2023-01-16T02:54:46;24.53;;;15.87;;
10479;SDS011;12789;42.610;23.040;2023-01-16T02:57:15;28.60;;;17.77;;
10479;SDS011;12789;42.610;23.040;2023-01-16T02:59:42;26.93;;;16.03;;
10479;SDS011;12789;42.610;23.040;2023-01-16T03:02:09;31.63;;;17.97;;
10479;SDS011;12789;42.610;23.040;2023-01-16T03:04:40;28.33;;;16.63;;
10479;SDS011;12789;42.610;23.040;2023-01-16T03:07:13;27.33;;;16.90;;
10479;SDS011;12789;42.610;23.040;2023-01-16T03:09:45;27.67;;;15.60;;
10479;SDS011;12789;42.610;23.040;2023-01-16T03:12:19;26.70;;;15.93;;
10479;SDS011;12789;42.610;23.040;2023-01-16T03:14:48;30.43;;;17.07;;
10479;SDS011;12789;42.610;23.040;2023-01-16T03:17:21;28.00;;;16.40;;
10479;SDS011;12789;42.610;23.040;2023-01-16T03:19:56;32.93;;;18.77;;
10479;SDS011;12789;42.610;23.040;2023-01-16T03:22:27;31.23;;;16.67;;
10479;SDS011;12789;42.610;23.040;2023-01-16T03:24:59;30.70;;;16.10;;
10479;SDS011;12789;42.610;23.040;2023-01-16T03:27:31;28.47;;;16.20;;
10479;SDS011;12789;42.610;23.040;2023-01-16T03:30:02;30.00;;;16.67;;
10479;SDS011;12789;42.610;23.040;2023-01-16T03:32:33;28.60;;;16.53;;
10479;SDS011;12789;42.610;23.040;2023-01-16T03:35:03;29.83;;;16.80;;
10479;SDS011;12789;42.610;23.040;2023-01-16T03:37:35;159.37;;;58.97;;
10479;SDS011;12789;42.610;23.040;2023-01-16T03:40:06;152.83;;;54.03;;
10479;SDS011;12789;42.610;23.040;2023-01-16T03:42:35;60.03;;;26.00;;
10479;SDS011;12789;42.610;23.040;2023-01-16T03:45:03;34.13;;;18.90;;
10479;SDS011;12789;42.610;23.040;2023-01-16T03:47:33;31.10;;;16.83;;
10479;SDS011;12789;42.610;23.040;2023-01-16T03:50:04;31.67;;;17.40;;
10479;SDS011;12789;42.610;23.040;2023-01-16T03:52:34;226.17;;;74.67;;
10479;SDS011;12789;42.610;23.040;2023-01-16T03:55:05;34.70;;;18.57;;
10479;SDS011;12789;42.610;23.040;2023-01-16T03:57:34;52.77;;;22.77;;
10479;SDS011;12789;42.610;23.040;2023-01-16T04:00:03;28.70;;;16.70;;
10479;SDS011;12789;42.610;23.040;2023-01-16T04:02:32;30.27;;;17.67;;
10479;SDS011;12789;42.610;23.040;2023-01-16T04:05:05;29.27;;;17.50;;
10479;SDS011;12789;42.610;23.040;2023-01-16T04:07:35;180.30;;;60.83;;
10479;SDS011;12789;42.610;23.040;2023-01-16T04:10:06;56.20;;;24.10;;
10479;SDS011;12789;42.610;23.040;2023-01-16T04:12:35;53.80;;;22.07;;
10479;SDS011;12789;42.610;23.040;2023-01-16T04:15:04;82.07;;;32.77;;
10479;SDS011;12789;42.610;23.040;2023-01-16T04:17:32;60.00;;;26.00;;
10479;SDS011;12789;42.610;23.040;2023-01-16T04:19:59;34.67;;;18.77;;
10479;SDS011;12789;42.610;23.040;2023-01-16T04:22:27;29.60;;;17.60;;
10479;SDS011;12789;42.610;23.040;2023-01-16T04:24:54;24.47;;;14.40;;
10479;SDS011;12789;42.610;23.040;2023-01-16T04:27:23;31.77;;;17.07;;
10479;SDS011;12789;42.610;23.040;2023-01-16T04:29:50;39.07;;;21.17;;
10479;SDS011;12789;42.610;23.040;2023-01-16T04:32:17;34.50;;;19.17;;
10479;SDS011;12789;42.610;23.040;2023-01-16T04:34:44;45.03;;;19.93;;
10479;SDS011;12789;42.610;23.040;2023-01-16T04:37:11;162.20;;;96.20;;
10479;SDS011;12789;42.610;23.040;2023-01-16T04:39:39;34.23;;;22.17;;
10479;SDS011;12789;42.610;23.040;2023-01-16T04:42:06;34.70;;;21.63;;
10479;SDS011;12789;42.610;23.040;2023-01-16T04:44:34;39.17;;;26.03;;
10479;SDS011;12789;42.610;23.040;2023-01-16T04:47:01;35.83;;;23.00;;
10479;SDS011;12789;42.610;23.040;2023-01-16T04:49:27;27.00;;;15.50;;
10479;SDS011;12789;42.610;23.040;2023-01-16T04:51:54;26.67;;;17.30;;
10479;SDS011;12789;42.610;23.040;2023-01-16T04:54:21;31.17;;;17.13;;
10479;SDS011;12789;42.610;23.040;2023-01-16T04:56:47;35.47;;;18.73;;
10479;SDS011;12789;42.610;23.040;2023-01-16T04:59:14;60.90;;;35.03;;
10479;SDS011;12789;42.610;23.040;2023-01-16T05:01:42;90.00;;;46.57;;
10479;SDS011;12789;42.610;23.040;2023-01-16T05:04:09;87.80;;;40.00;;
10479;SDS011;12789;42.610;23.040;2023-01-16T05:06:36;121.77;;;49.87;;
10479;SDS011;12789;42.610;23.040;2023-01-16T05:09:04;58.50;;;28.00;;
10479;SDS011;12789;42.610;23.040;2023-01-16T05:11:31;31.73;;;17.90;;
10479;SDS011;12789;42.610;23.040;2023-01-16T05:13:57;30.13;;;17.27;;
10479;SDS011;12789;42.610;23.040;2023-01-16T05:16:24;30.03;;;15.93;;
10479;SDS011;12789;42.610;23.040;2023-01-16T05:18:52;39.77;;;21.20;;
10479;SDS011;12789;42.610;23.040;2023-01-16T05:21:19;149.67;;;67.90;;
10479;SDS011;12789;42.610;23.040;2023-01-16T05:23:46;62.93;;;31.40;;
10479;SDS011;12789;42.610;23.040;2023-01-16T05:26:13;34.30;;;22.17;;
10479;SDS011;12789;42.610;23.040;2023-01-16T05:28:39;29.37;;;18.33;;
10479;SDS011;12789;42.610;23.040;2023-01-16T05:31:06;30.03;;;17.87;;
10479;SDS011;12789;42.610;23.040;2023-01-16T05:33:33;30.30;;;17.67;;
10479;SDS011;12789;42.610;23.040;2023-01-16T05:36:01;27.50;;;17.27;;
10479;SDS011;12789;42.610;23.040;2023-01-16T05:38:28;31.13;;;19.37;;
10479;SDS011;12789;42.610;23.040;2023-01-16T05:40:55;33.57;;;19.43;;
10479;SDS011;12789;42.610;23.040;2023-01-16T05:43:22;39.50;;;22.00;;
10479;SDS011;12789;42.610;23.040;2023-01-16T05:45:48;30.60;;;18.53;;
10479;SDS011;12789;42.610;23.040;2023-01-16T05:48:15;34.67;;;18.37;;
10479;SDS011;12789;42.610;23.040;2023-01-16T05:50:41;26.50;;;16.77;;
10479;SDS011;12789;42.610;23.040;2023-01-16T05:53:15;30.73;;;17.67;;
10479;SDS011;12789;42.610;23.040;2023-01-16T05:55:42;35.60;;;18.83;;
10479;SDS011;12789;42.610;23.040;2023-01-16T05:58:09;44.60;;;25.63;;
10479;SDS011;12789;42.610;23.040;2023-01-16T06:00:36;44.70;;;24.43;;
10479;SDS011;12789;42.610;23.040;2023-01-16T06:03:03;46.90;;;23.90;;
10479;SDS011;12789;42.610;23.040;2023-01-16T06:05:30;139.23;;;58.43;;
10479;SDS011;12789;42.610;23.040;2023-01-16T06:07:57;142.90;;;53.73;;
10479;SDS011;12789;42.610;23.040;2023-01-16T06:10:25;83.10;;;35.70;;
10479;SDS011;12789;42.610;23.040;2023-01-16T06:12:52;45.30;;;22.03;;
10479;SDS011;12789;42.610;23.040;2023-01-16T06:15:19;42.03;;;22.90;;
10479;SDS011;12789;42.610;23.040;2023-01-16T06:17:46;35.23;;;20.30;;
10479;SDS011;12789;42.610;23.040;2023-01-16T06:20:12;34.57;;;20.20;;
10479;SDS011;12789;42.610;23.040;2023-01-16T06:22:39;43.73;;;21.90;;
10479;SDS011;12789;42.610;23.040;2023-01-16T06:25:06;45.90;;;27.10;;
10479;SDS011;12789;42.610;23.040;2023-01-16T06:27:34;60.50;;;32.43;;
10479;SDS011;12789;42.610;23.040;2023-01-16T06:30:01;54.10;;;29.23;;
10479;SDS011;12789;42.610;23.040;2023-01-16T06:32:28;74.27;;;38.90;;
10479;SDS011;12789;42.610;23.040;2023-01-16T06:34:54;255.67;;;106.33;;
10479;SDS011;12789;42.610;23.040;2023-01-16T06:37:21;261.27;;;109.47;;
10479;SDS011;12789;42.610;23.040;2023-01-16T06:39:48;148.43;;;55.27;;
10479;SDS011;12789;42.610;23.040;2023-01-16T06:42:14;80.10;;;37.97;;
10479;SDS011;12789;42.610;23.040;2023-01-16T06:44:43;55.00;;;27.10;;
10479;SDS011;12789;42.610;23.040;2023-01-16T06:47:10;47.53;;;25.90;;
10479;SDS011;12789;42.610;23.040;2023-01-16T06:49:37;85.17;;;43.93;;
10479;SDS011;12789;42.610;23.040;2023-01-16T06:52:04;123.20;;;68.43;;
10479;SDS011;12789;42.610;23.040;2023-01-16T06:54:31;43.03;;;25.43;;
10479;SDS011;12789;42.610;23.040;2023-01-16T06:56:58;39.57;;;23.83;;
10479;SDS011;12789;42.610;23.040;2023-01-16T06:59:25;103.53;;;45.43;;
10479;SDS011;12789;42.610;23.040;2023-01-16T07:01:53;38.67;;;21.37;;
10479;SDS011;12789;42.610;23.040;2023-01-16T07:04:23;37.27;;;20.10;;
10479;SDS011;12789;42.610;23.040;2023-01-16T07:06:49;44.53;;;23.83;;
10479;SDS011;12789;42.610;23.040;2023-01-16T07:09:17;45.33;;;23.80;;
10479;SDS011;12789;42.610;23.040;2023-01-16T07:11:47;41.40;;;22.07;;
10479;SDS011;12789;42.610;23.040;2023-01-16T07:14:14;41.03;;;22.70;;
10479;SDS011;12789;42.610;23.040;2023-01-16T07:16:59;59.70;;;33.23;;
10479;SDS011;12789;42.610;23.040;2023-01-16T07:19:43;98.40;;;41.87;;
10479;SDS011;12789;42.610;23.040;2023-01-16T07:22:27;51.27;;;29.17;;
10479;SDS011;12789;42.610;23.040;2023-01-16T07:25:06;113.00;;;50.80;;
10479;SDS011;12789;42.610;23.040;2023-01-16T07:27:34;76.53;;;33.77;;
10479;SDS011;12789;42.610;23.040;2023-01-16T07:30:00;61.50;;;29.63;;
10479;SDS011;12789;42.610;23.040;2023-01-16T07:32:28;65.53;;;35.87;;
10479;SDS011;12789;42.610;23.040;2023-01-16T07:34:55;57.63;;;31.23;;
10479;SDS011;12789;42.610;23.040;2023-01-16T07:37:22;42.03;;;22.60;;
10479;SDS011;12789;42.610;23.040;2023-01-16T07:39:48;56.47;;;32.30;;
10479;SDS011;12789;42.610;23.040;2023-01-16T07:42:15;58.97;;;31.83;;
10479;SDS011;12789;42.610;23.040;2023-01-16T07:44:42;67.27;;;36.63;;
10479;SDS011;12789;42.610;23.040;2023-01-16T07:47:08;60.53;;;36.87;;
10479;SDS011;12789;42.610;23.040;2023-01-16T07:49:39;40.63;;;24.77;;
10479;SDS011;12789;42.610;23.040;2023-01-16T07:52:06;22.97;;;16.50;;
10479;SDS011;12789;42.610;23.040;2023-01-16T07:54:32;23.97;;;16.67;;
10479;SDS011;12789;42.610;23.040;2023-01-16T07:57:01;21.53;;;14.07;;
10479;SDS011;12789;42.610;23.040;2023-01-16T07:59:28;20.47;;;12.00;;
10479;SDS011;12789;42.610;23.040;2023-01-16T08:01:54;17.87;;;12.20;;
10479;SDS011;12789;42.610;23.040;2023-01-16T08:04:21;19.53;;;11.87;;
10479;SDS011;12789;42.610;23.040;2023-01-16T08:06:49;20.87;;;11.40;;
10479;SDS011;12789;42.610;23.040;2023-01-16T08:09:15;25.03;;;16.90;;
10479;SDS011;12789;42.610;23.040;2023-01-16T08:11:42;15.80;;;11.07;;
10479;SDS011;12789;42.610;23.040;2023-01-16T08:14:12;18.00;;;10.60;;
10479;SDS011;12789;42.610;23.040;2023-01-16T08:16:39;17.67;;;10.87;;
10479;SDS011;12789;42.610;23.040;2023-01-16T08:19:06;18.40;;;11.53;;
10479;SDS011;12789;42.610;23.040;2023-01-16T08:21:33;15.30;;;11.43;;
10479;SDS011;12789;42.610;23.040;2023-01-16T08:24:00;20.70;;;13.37;;
10479;SDS011;12789;42.610;23.040;2023-01-16T08:26:27;15.93;;;11.47;;
10479;SDS011;12789;42.610;23.040;2023-01-16T08:28:54;15.87;;;11.70;;
10479;SDS011;12789;42.610;23.040;2023-01-16T08:31:21;18.90;;;10.97;;
10479;SDS011;12789;42.610;23.040;2023-01-16T08:33:48;15.70;;;10.60;;
10479;SDS011;12789;42.610;23.040;2023-01-16T08:36:15;15.87;;;9.93;;
10479;SDS011;12789;42.610;23.040;2023-01-16T08:38:45;17.73;;;11.07;;
10479;SDS011;12789;42.610;23.040;2023-01-16T08:41:13;14.17;;;9.60;;
10479;SDS011;12789;42.610;23.040;2023-01-16T08:43:57;12.20;;;8.93;;
10479;SDS011;12789;42.610;23.040;2023-01-16T08:46:43;33.23;;;20.17;;
10479;SDS011;12789;42.610;23.040;2023-01-16T08:49:29;20.67;;;14.33;;
10479;SDS011;12789;42.610;23.040;2023-01-16T08:52:14;23.20;;;16.53;;
10479;SDS011;12789;42.610;23.040;2023-01-16T08:54:40;18.87;;;13.80;;
10479;SDS011;12789;42.610;23.040;2023-01-16T08:57:09;16.53;;;11.00;;
10479;SDS011;12789;42.610;23.040;2023-01-16T08:59:36;13.77;;;9.43;;
10479;SDS011;12789;42.610;23.040;2023-01-16T09:02:03;15.70;;;10.00;;
10479;SDS011;12789;42.610;23.040;2023-01-16T09:04:30;12.13;;;9.00;;
10479;SDS011;12789;42.610;23.040;2023-01-16T09:06:57;17.97;;;11.07;;
10479;SDS011;12789;42.610;23.040;2023-01-16T09:09:24;13.23;;;9.93;;
10479;SDS011;12789;42.610;23.040;2023-01-16T09:11:54;12.07;;;8.90;;
10479;SDS011;12789;42.610;23.040;2023-01-16T09:14:40;8.67;;;7.60;;
10479;SDS011;12789;42.610;23.040;2023-01-16T09:17:07;10.07;;;8.60;;
10479;SDS011;12789;42.610;23.040;2023-01-16T09:19:33;11.80;;;8.07;;
10479;SDS011;12789;42.610;23.040;2023-01-16T09:22:00;14.13;;;9.43;;
10479;SDS011;12789;42.610;23.040;2023-01-16T09:24:27;19.97;;;13.30;;
10479;SDS011;12789;42.610;23.040;2023-01-16T09:26:54;49.73;;;26.60;;
10479;SDS011;12789;42.610;23.040;2023-01-16T09:29:20;17.07;;;11.90;;
10479;SDS011;12789;42.610;23.040;2023-01-16T09:31:48;17.60;;;12.30;;
10479;SDS011;12789;42.610;23.040;2023-01-16T09:34:15;15.10;;;9.60;;
10479;SDS011;12789;42.610;23.040;2023-01-16T09:36:42;13.83;;;10.37;;
10479;SDS011;12789;42.610;23.040;2023-01-16T09:39:08;9.27;;;7.17;;
10479;SDS011;12789;42.610;23.040;2023-01-16T09:41:35;8.90;;;7.47;;
10479;SDS011;12789;42.610;23.040;2023-01-16T09:44:23;10.90;;;8.50;;
10479;SDS011;12789;42.610;23.040;2023-01-16T09:46:51;21.80;;;10.10;;
10479;SDS011;12789;42.610;23.040;2023-01-16T09:49:19;18.97;;;13.67;;
10479;SDS011;12789;42.610;23.040;2023-01-16T09:51:49;12.83;;;8.83;;
10479;SDS011;12789;42.610;23.040;2023-01-16T09:54:31;13.53;;;9.13;;
10479;SDS011;12789;42.610;23.040;2023-01-16T09:57:16;11.50;;;7.97;;
10479;SDS011;12789;42.610;23.040;2023-01-16T10:00:00;10.73;;;7.33;;
10479;SDS011;12789;42.610;23.040;2023-01-16T10:02:29;11.27;;;7.93;;
10479;SDS011;12789;42.610;23.040;2023-01-16T10:04:58;10.73;;;8.17;;
10479;SDS011;12789;42.610;23.040;2023-01-16T10:07:42;8.10;;;6.30;;
10479;SDS011;12789;42.610;23.040;2023-01-16T10:10:18;10.23;;;7.50;;
10479;SDS011;12789;42.610;23.040;2023-01-16T10:12:47;8.93;;;8.00;;
10479;SDS011;12789;42.610;23.040;2023-01-16T10:15:17;9.83;;;7.27;;
10479;SDS011;12789;42.610;23.040;2023-01-16T10:17:53;9.07;;;7.93;;
10479;SDS011;12789;42.610;23.040;2023-01-16T10:20:27;8.43;;;7.27;;
10479;SDS011;12789;42.610;23.040;2023-01-16T10:22:59;14.73;;;9.80;;
10479;SDS011;12789;42.610;23.040;2023-01-16T10:25:30;14.40;;;9.73;;
10479;SDS011;12789;42.610;23.040;2023-01-16T10:28:02;9.93;;;6.97;;
10479;SDS011;12789;42.610;23.040;2023-01-16T10:30:32;11.17;;;9.07;;
10479;SDS011;12789;42.610;23.040;2023-01-16T10:33:03;7.97;;;7.00;;
10479;SDS011;12789;42.610;23.040;2023-01-16T10:35:32;7.67;;;6.70;;
10479;SDS011;12789;42.610;23.040;2023-01-16T10:38:08;6.87;;;6.20;;
10479;SDS011;12789;42.610;23.040;2023-01-16T10:40:39;8.93;;;5.90;;
10479;SDS011;12789;42.610;23.040;2023-01-16T10:43:09;6.83;;;6.13;;
10479;SDS011;12789;42.610;23.040;2023-01-16T10:45:54;5.70;;;5.13;;
10479;SDS011;12789;42.610;23.040;2023-01-16T10:48:55;8.53;;;6.73;;
10479;SDS011;12789;42.610;23.040;2023-01-16T10:51:39;9.63;;;5.80;;
10479;SDS011;12789;42.610;23.040;2023-01-16T10:54:06;5.77;;;4.57;;
10479;SDS011;12789;42.610;23.040;2023-01-16T10:56:33;6.93;;;5.53;;
10479;SDS011;12789;42.610;23.040;2023-01-16T10:59:00;8.37;;;6.60;;
10479;SDS011;12789;42.610;23.040;2023-01-16T11:01:27;8.33;;;6.60;;
10479;SDS011;12789;42.610;23.040;2023-01-16T11:03:56;8.33;;;5.50;;
10479;SDS011;12789;42.610;23.040;2023-01-16T11:06:25;4.60;;;4.20;;
10479;SDS011;12789;42.610;23.040;2023-01-16T11:08:53;11.53;;;7.47;;
10479;SDS011;12789;42.610;23.040;2023-01-16T11:11:20;5.67;;;5.07;;
10479;SDS011;12789;42.610;23.040;2023-01-16T11:14:09;5.83;;;5.13;;
10479;SDS011;12789;42.610;23.040;2023-01-16T11:16:54;5.17;;;4.67;;
10479;SDS011;12789;42.610;23.040;2023-01-16T11:19:41;12.03;;;6.80;;
10479;SDS011;12789;42.610;23.040;2023-01-16T11:22:20;5.97;;;5.20;;
10479;SDS011;12789;42.610;23.040;2023-01-16T11:24:47;6.73;;;5.97;;
10479;SDS011;12789;42.610;23.040;2023-01-16T11:27:15;5.63;;;4.20;;
10479;SDS011;12789;42.610;23.040;2023-01-16T11:29:44;4.50;;;4.10;;
10479;SDS011;12789;42.610;23.040;2023-01-16T11:32:11;8.87;;;6.63;;
10479;SDS011;12789;42.610;23.040;2023-01-16T11:34:39;4.43;;;4.03;;
10479;SDS011;12789;42.610;23.040;2023-01-16T11:37:11;8.47;;;5.93;;
10479;SDS011;12789;42.610;23.040;2023-01-16T11:39:39;7.93;;;6.10;;
10479;SDS011;12789;42.610;23.040;2023-01-16T11:42:08;5.43;;;4.90;;
10479;SDS011;12789;42.610;23.040;2023-01-16T11:44:59;6.40;;;5.27;;
10479;SDS011;12789;42.610;23.040;2023-01-16T11:47:50;9.87;;;6.90;;
10479;SDS011;12789;42.610;23.040;2023-01-16T11:50:20;18.27;;;11.27;;
10479;SDS011;12789;42.610;23.040;2023-01-16T11:52:56;8.23;;;6.77;;
10479;SDS011;12789;42.610;23.040;2023-01-16T11:55:39;9.70;;;7.67;;
10479;SDS011;12789;42.610;23.040;2023-01-16T11:58:10;6.97;;;6.03;;
10479;SDS011;12789;42.610;23.040;2023-01-16T12:00:45;10.33;;;7.60;;
10479;SDS011;12789;42.610;23.040;2023-01-16T12:03:28;19.80;;;13.80;;
10479;SDS011;12789;42.610;23.040;2023-01-16T12:06:05;11.67;;;8.13;;
10479;SDS011;12789;42.610;23.040;2023-01-16T12:11:24;16.80;;;9.67;;
10479;SDS011;12789;42.610;23.040;2023-01-16T12:13:55;9.40;;;6.17;;
10479;SDS011;12789;42.610;23.040;2023-01-16T12:16:43;7.97;;;6.43;;
10479;SDS011;12789;42.610;23.040;2023-01-16T12:19:20;8.57;;;7.07;;
10479;SDS011;12789;42.610;23.040;2023-01-16T12:21:51;13.47;;;8.83;;
10479;SDS011;12789;42.610;23.040;2023-01-16T12:24:26;24.03;;;17.70;;
10479;SDS011;12789;42.610;23.040;2023-01-16T12:27:02;8.10;;;6.00;;
10479;SDS011;12789;42.610;23.040;2023-01-16T12:29:35;7.70;;;6.00;;
10479;SDS011;12789;42.610;23.040;2023-01-16T12:32:20;11.53;;;8.10;;
10479;SDS011;12789;42.610;23.040;2023-01-16T12:35:02;8.53;;;6.90;;
10479;SDS011;12789;42.610;23.040;2023-01-16T12:37:36;18.93;;;12.83;;
10479;SDS011;12789;42.610;23.040;2023-01-16T12:40:12;8.60;;;6.47;;
10479;SDS011;12789;42.610;23.040;2023-01-16T12:42:45;10.33;;;8.23;;
10479;SDS011;12789;42.610;23.040;2023-01-16T12:45:38;27.67;;;7.67;;
10479;SDS011;12789;42.610;23.040;2023-01-16T12:48:19;9.10;;;5.30;;
10479;SDS011;12789;42.610;23.040;2023-01-16T12:50:51;16.63;;;10.90;;
10479;SDS011;12789;42.610;23.040;2023-01-16T12:53:35;43.70;;;19.93;;
10479;SDS011;12789;42.610;23.040;2023-01-16T12:56:11;21.50;;;12.60;;
10479;SDS011;12789;42.610;23.040;2023-01-16T12:58:45;27.70;;;16.03;;
10479;SDS011;12789;42.610;23.040;2023-01-16T13:01:12;9.90;;;7.20;;
10479;SDS011;12789;42.610;23.040;2023-01-16T13:03:39;10.23;;;6.27;;
10479;SDS011;12789;42.610;23.040;2023-01-16T13:06:10;8.17;;;6.27;;
10479;SDS011;12789;42.610;23.040;2023-01-16T13:08:44;8.07;;;6.90;;
10479;SDS011;12789;42.610;23.040;2023-01-16T13:11:15;4.57;;;4.17;;
10479;SDS011;12789;42.610;23.040;2023-01-16T13:14:05;6.97;;;5.77;;
10479;SDS011;12789;42.610;23.040;2023-01-16T13:16:34;8.13;;;5.93;;
10479;SDS011;12789;42.610;23.040;2023-01-16T13:19:04;8.30;;;5.77;;
10479;SDS011;12789;42.610;23.040;2023-01-16T13:21:38;6.17;;;5.20;;
10479;SDS011;12789;42.610;23.040;2023-01-16T13:24:09;6.40;;;4.70;;
10479;SDS011;12789;42.610;23.040;2023-01-16T13:26:38;19.47;;;8.30;;
10479;SDS011;12789;42.610;23.040;2023-01-16T13:29:22;14.37;;;8.50;;
10479;SDS011;12789;42.610;23.040;2023-01-16T13:31:54;34.40;;;17.67;;
10479;SDS011;12789;42.610;23.040;2023-01-16T13:34:24;27.83;;;14.17;;
10479;SDS011;12789;42.610;23.040;2023-01-16T13:39:58;9.90;;;6.87;;
10479;SDS011;12789;42.610;23.040;2023-01-16T13:42:29;29.97;;;13.27;;
10479;SDS011;12789;42.610;23.040;2023-01-16T13:44:59;25.10;;;13.03;;
10479;SDS011;12789;42.610;23.040;2023-01-16T13:47:47;15.17;;;9.20;;
10479;SDS011;12789;42.610;23.040;2023-01-16T13:50:31;22.60;;;12.67;;
10479;SDS011;12789;42.610;23.040;2023-01-16T13:53:03;14.20;;;9.90;;
10479;SDS011;12789;42.610;23.040;2023-01-16T13:55:32;14.63;;;9.43;;
10479;SDS011;12789;42.610;23.040;2023-01-16T13:58:08;14.10;;;10.23;;
10479;SDS011;12789;42.610;23.040;2023-01-16T14:00:37;14.50;;;10.20;;
10479;SDS011;12789;42.610;23.040;2023-01-16T14:05:52;6.70;;;6.10;;
10479;SDS011;12789;42.610;23.040;2023-01-16T14:08:25;6.93;;;5.17;;
10479;SDS011;12789;42.610;23.040;2023-01-16T14:11:16;7.27;;;4.97;;
10479;SDS011;12789;42.610;23.040;2023-01-16T14:13:50;6.77;;;5.03;;
10479;SDS011;12789;42.610;23.040;2023-01-16T14:16:39;12.37;;;6.90;;
10479;SDS011;12789;42.610;23.040;2023-01-16T14:19:20;5.30;;;4.80;;
10479;SDS011;12789;42.610;23.040;2023-01-16T14:21:47;10.13;;;6.20;;
10479;SDS011;12789;42.610;23.040;2023-01-16T14:24:48;12.93;;;6.13;;
10479;SDS011;12789;42.610;23.040;2023-01-16T14:27:16;13.70;;;9.03;;
10479;SDS011;12789;42.610;23.040;2023-01-16T14:29:45;17.27;;;10.53;;
10479;SDS011;12789;42.610;23.040;2023-01-16T14:32:19;13.63;;;9.60;;
10479;SDS011;12789;42.610;23.040;2023-01-16T14:34:48;9.23;;;6.80;;
10479;SDS011;12789;42.610;23.040;2023-01-16T14:37:17;10.83;;;6.70;;
10479;SDS011;12789;42.610;23.040;2023-01-16T14:39:47;7.43;;;5.73;;
10479;SDS011;12789;42.610;23.040;2023-01-16T14:42:16;9.27;;;6.13;;
10479;SDS011;12789;42.610;23.040;2023-01-16T14:48:10;11.77;;;7.43;;
10479;SDS011;12789;42.610;23.040;2023-01-16T14:50:55;8.20;;;6.20;;
10479;SDS011;12789;42.610;23.040;2023-01-16T14:53:41;12.67;;;9.00;;
10479;SDS011;12789;42.610;23.040;2023-01-16T14:56:26;7.03;;;6.33;;